createdAt,value
2018-04-08T00:00:59.874Z,96.10
2018-04-08T00:03:28.004Z,95.70
2018-04-08T00:05:56.177Z,95.30
2018-04-08T00:08:24.321Z,94.90
2018-04-08T00:10:52.495Z,94.70
2018-04-08T00:13:20.635Z,94.70
2018-04-08T00:15:48.799Z,94.40
2018-04-08T00:18:17.697Z,94.40
2018-04-08T00:20:45.870Z,94.40
2018-04-08T00:23:14.036Z,94.10
2018-04-08T00:25:42.199Z,94.20
2018-04-08T00:28:10.337Z,94.20
2018-04-08T00:30:38.482Z,94.20
2018-04-08T00:33:06.645Z,94.40
2018-04-08T00:35:34.778Z,94.40
2018-04-08T00:38:02.944Z,94.60
2018-04-08T00:40:31.088Z,94.70
2018-04-08T00:42:59.246Z,94.80
2018-04-08T00:45:27.395Z,95.00
2018-04-08T00:47:55.558Z,95.30
2018-04-08T00:50:24.461Z,94.90
2018-04-08T00:52:52.630Z,94.90
2018-04-08T00:55:21.529Z,95.20
2018-04-08T00:57:49.693Z,95.20
2018-04-08T01:00:18.598Z,95.40
2018-04-08T01:02:46.760Z,95.40
2018-04-08T01:05:15.657Z,95.80
2018-04-08T01:07:43.820Z,95.80
2018-04-08T01:10:12.718Z,96.20
2018-04-08T01:12:40.903Z,96.10
2018-04-08T01:15:09.057Z,96.40
2018-04-08T01:17:37.221Z,96.50
2018-04-08T01:20:05.362Z,96.60
2018-04-08T01:22:33.521Z,96.70
2018-04-08T01:25:01.666Z,96.80
2018-04-08T01:27:29.830Z,96.80
2018-04-08T01:29:57.966Z,96.90
2018-04-08T01:32:26.133Z,97.00
2018-04-08T01:34:54.273Z,97.00
2018-04-08T01:37:22.438Z,97.20
2018-04-08T01:39:50.577Z,97.10
2018-04-08T01:42:19.506Z,97.50
2018-04-08T01:44:47.648Z,97.50
2018-04-08T01:47:16.575Z,97.80
2018-04-08T01:49:44.714Z,97.80
2018-04-08T01:52:13.646Z,97.80
2018-04-08T01:54:41.781Z,97.80
2018-04-08T01:57:10.704Z,98.10
2018-04-08T01:59:38.843Z,98.10
2018-04-08T02:02:07.775Z,98.50
2018-04-08T02:04:35.909Z,98.50
2018-04-08T02:07:04.073Z,98.40
2018-04-08T02:09:32.209Z,98.40
2018-04-08T02:12:00.370Z,98.50
2018-04-08T02:14:28.504Z,98.70
2018-04-08T02:16:56.670Z,98.50
2018-04-08T02:19:24.808Z,98.60
2018-04-08T02:21:52.973Z,98.70
2018-04-08T02:24:21.109Z,99.20
2018-04-08T02:26:49.274Z,99.60
2018-04-08T02:29:17.414Z,99.70
2018-04-08T02:31:46.129Z,99.90
2018-04-08T02:34:14.266Z,99.90
2018-04-08T02:36:42.398Z,99.90
2018-04-08T02:39:10.562Z,99.90
2018-04-08T02:41:38.693Z,99.90
2018-04-08T02:44:06.855Z,99.90
2018-04-08T02:46:34.984Z,99.90
2018-04-08T02:49:03.180Z,99.90
2018-04-08T02:51:31.314Z,99.90
2018-04-08T02:53:59.480Z,99.90
2018-04-08T02:56:28.381Z,99.90
2018-04-08T02:58:56.545Z,99.90
2018-04-08T03:01:24.689Z,99.90
2018-04-08T03:03:52.851Z,99.90
2018-04-08T03:06:20.980Z,99.90
2018-04-08T03:08:49.142Z,99.90
2018-04-08T03:11:17.275Z,99.90
2018-04-08T03:13:45.435Z,99.90
2018-04-08T03:16:13.570Z,99.90
2018-04-08T03:18:41.726Z,99.90
2018-04-08T03:21:10.634Z,99.90
2018-04-08T03:23:38.792Z,99.90
2018-04-08T03:26:07.690Z,99.90
2018-04-08T03:28:35.853Z,99.90
2018-04-08T03:31:04.745Z,99.90
2018-04-08T03:33:32.905Z,99.90
2018-04-08T03:38:36.228Z,99.90
2018-04-08T03:41:04.334Z,99.90
2018-04-08T03:43:32.491Z,99.90
2018-04-08T03:46:00.625Z,99.90
2018-04-08T03:48:28.789Z,99.90
2018-04-08T03:50:56.917Z,99.90
2018-04-08T03:53:25.077Z,99.90
2018-04-08T03:55:53.210Z,99.90
2018-04-08T03:58:21.370Z,99.90
2018-04-08T04:00:49.506Z,99.90
2018-04-08T04:03:17.667Z,99.90
2018-04-08T04:05:45.797Z,99.90
2018-04-08T04:08:13.957Z,99.90
2018-04-08T04:10:42.095Z,99.90
2018-04-08T04:13:10.254Z,99.90
2018-04-08T04:15:38.385Z,99.90
2018-04-08T04:18:18.235Z,99.90
2018-04-08T04:20:58.106Z,99.90
2018-04-08T04:23:37.965Z,99.90
2018-04-08T04:26:17.834Z,99.90
2018-04-08T04:28:45.995Z,99.90
2018-04-08T04:31:14.125Z,99.90
2018-04-08T04:33:42.319Z,99.90
2018-04-08T04:36:10.447Z,99.90
2018-04-08T04:38:38.602Z,99.90
2018-04-08T04:41:06.729Z,99.90
2018-04-08T04:43:35.654Z,99.90
2018-04-08T04:46:03.797Z,99.90
2018-04-08T04:48:32.721Z,99.90
2018-04-08T04:51:00.850Z,99.90
2018-04-08T04:53:29.013Z,99.90
2018-04-08T04:55:57.146Z,99.90
2018-04-08T04:58:25.307Z,99.90
2018-04-08T05:00:53.445Z,99.90
2018-04-08T05:03:21.612Z,99.90
2018-04-08T05:05:49.741Z,99.90
2018-04-08T05:08:17.906Z,99.90
2018-04-08T05:10:46.057Z,99.90
2018-04-08T05:13:14.196Z,99.90
2018-04-08T05:15:42.358Z,99.90
2018-04-08T05:18:10.493Z,99.90
2018-04-08T05:20:38.860Z,99.90
2018-04-08T05:23:07.373Z,99.90
2018-04-08T05:25:36.091Z,99.90
2018-04-08T05:28:04.233Z,99.90
2018-04-08T05:30:32.444Z,99.90
2018-04-08T05:33:00.596Z,99.90
2018-04-08T05:35:28.791Z,99.90
2018-04-08T05:37:56.951Z,99.90
2018-04-08T05:40:25.125Z,99.90
2018-04-08T05:42:53.260Z,99.90
2018-04-08T05:45:21.425Z,99.90
2018-04-08T05:47:49.560Z,99.90
2018-04-08T05:50:17.723Z,99.90
2018-04-08T05:52:45.861Z,99.90
2018-04-08T05:55:14.029Z,99.90
2018-04-08T05:57:42.172Z,99.90
2018-04-08T06:00:11.102Z,99.90
2018-04-08T06:02:39.276Z,99.90
2018-04-08T06:05:07.451Z,99.90
2018-04-08T06:07:36.197Z,99.90
2018-04-08T06:10:04.396Z,99.90
2018-04-08T06:12:32.525Z,99.90
2018-04-08T06:15:00.689Z,99.90
2018-04-08T06:17:28.830Z,99.90
2018-04-08T06:19:57.646Z,99.90
2018-04-08T06:22:25.797Z,99.90
2018-04-08T06:24:53.991Z,99.90
2018-04-08T06:27:22.149Z,99.90
2018-04-08T06:29:50.319Z,99.90
2018-04-08T06:32:18.470Z,99.90
2018-04-08T06:34:46.637Z,99.90
2018-04-08T06:37:14.775Z,99.90
2018-04-08T06:39:42.945Z,99.90
2018-04-08T06:42:11.081Z,99.90
2018-04-08T06:44:39.247Z,99.90
2018-04-08T06:47:07.380Z,99.90
2018-04-08T06:49:35.545Z,99.90
2018-04-08T06:52:04.562Z,99.90
2018-04-08T06:54:32.731Z,99.90
2018-04-08T06:57:01.079Z,99.90
2018-04-08T06:59:30.018Z,99.90
2018-04-08T07:01:58.158Z,99.90
2018-04-08T07:04:27.076Z,99.90
2018-04-08T07:06:55.228Z,99.90
2018-04-08T07:09:24.182Z,99.90
2018-04-08T07:11:52.582Z,99.90
2018-04-08T07:14:21.495Z,99.90
2018-04-08T07:16:51.090Z,99.90
2018-04-08T07:19:19.285Z,99.90
2018-04-08T07:21:47.473Z,99.90
2018-04-08T07:24:15.610Z,98.90
2018-04-08T07:26:43.778Z,98.80
2018-04-08T07:29:13.119Z,97.00
2018-04-08T07:31:41.280Z,97.00
2018-04-08T07:34:09.426Z,96.70
2018-04-08T07:36:37.634Z,97.70
2018-04-08T07:39:06.572Z,96.80
2018-04-08T07:41:34.758Z,97.20
2018-04-08T07:44:02.930Z,95.30
2018-04-08T07:46:31.096Z,96.30
2018-04-08T07:48:59.238Z,94.80
2018-04-08T07:51:27.747Z,93.90
2018-04-08T07:53:55.894Z,93.60
2018-04-08T07:56:24.874Z,93.10
2018-04-08T07:58:53.047Z,92.80
2018-04-08T08:01:21.264Z,92.10
2018-04-08T08:03:49.405Z,90.70
2018-04-08T08:06:17.569Z,91.40
2018-04-08T08:08:46.080Z,90.90
2018-04-08T08:11:14.279Z,89.80
2018-04-08T08:13:43.189Z,90.10
2018-04-08T08:16:11.358Z,90.10
2018-04-08T08:18:39.525Z,88.60
2018-04-08T08:21:08.143Z,89.50
2018-04-08T08:23:36.331Z,88.50
2018-04-08T08:26:04.532Z,84.40
2018-04-08T08:28:32.669Z,85.40
2018-04-08T08:31:00.838Z,85.20
2018-04-08T08:33:28.988Z,85.20
2018-04-08T08:35:57.198Z,88.10
2018-04-08T08:38:25.470Z,85.20
2018-04-08T08:40:53.669Z,83.70
2018-04-08T08:43:21.812Z,83.00
2018-04-08T08:45:49.982Z,83.40
2018-04-08T08:48:18.119Z,83.50
2018-04-08T08:50:46.286Z,80.40
2018-04-08T08:53:15.190Z,83.70
2018-04-08T08:55:43.358Z,83.70
2018-04-08T08:58:11.521Z,84.70
2018-04-08T09:00:39.689Z,86.20
2018-04-08T09:03:08.594Z,82.40
2018-04-08T09:05:37.336Z,82.40
2018-04-08T09:08:05.484Z,81.30
2018-04-08T09:10:33.657Z,82.00
2018-04-08T09:13:01.800Z,81.50
2018-04-08T09:15:29.965Z,81.40
2018-04-08T09:17:58.868Z,81.00
2018-04-08T09:20:29.829Z,81.00
2018-04-08T09:23:03.536Z,82.40
2018-04-08T09:25:36.309Z,81.50
2018-04-08T09:28:04.463Z,85.20
2018-04-08T09:30:32.630Z,86.00
2018-04-08T09:33:00.773Z,86.10
2018-04-08T09:35:29.830Z,88.20
2018-04-08T09:37:57.979Z,86.50
2018-04-08T09:40:26.149Z,86.50
2018-04-08T09:42:54.298Z,85.90
2018-04-08T09:45:22.468Z,86.40
2018-04-08T09:47:50.608Z,85.50
2018-04-08T09:50:18.777Z,84.50
2018-04-08T09:52:46.945Z,84.90
2018-04-08T09:55:15.089Z,87.70
2018-04-08T09:57:49.878Z,88.50
2018-04-08T10:00:23.646Z,84.50
2018-04-08T10:02:57.529Z,83.70
2018-04-08T10:05:25.717Z,87.00
2018-04-08T10:07:53.874Z,87.00
2018-04-08T10:10:22.019Z,87.30
2018-04-08T10:12:50.196Z,86.90
2018-04-08T10:15:18.343Z,86.40
2018-04-08T10:17:46.514Z,86.20
2018-04-08T10:20:14.664Z,82.50
2018-04-08T10:22:42.833Z,83.70
2018-04-08T10:25:10.983Z,81.50
2018-04-08T10:27:39.155Z,81.70
2018-04-08T10:30:07.307Z,81.00
2018-04-08T10:32:35.483Z,81.80
2018-04-08T10:35:04.397Z,90.80
2018-04-08T10:37:32.562Z,90.80
2018-04-08T10:40:00.710Z,90.40
2018-04-08T10:42:28.882Z,90.20
2018-04-08T10:44:57.031Z,89.00
2018-04-08T10:47:25.201Z,87.20
2018-04-08T10:49:53.345Z,90.40
2018-04-08T10:52:21.517Z,89.60
2018-04-08T10:54:49.666Z,90.90
2018-04-08T10:57:18.619Z,90.00
2018-04-08T10:59:46.766Z,90.00
2018-04-08T11:02:14.917Z,88.10
2018-04-08T11:04:43.827Z,88.10
2018-04-08T11:07:11.963Z,88.70
2018-04-08T11:09:40.141Z,90.10
2018-04-08T11:12:09.115Z,91.30
2018-04-08T11:14:37.797Z,89.80
2018-04-08T11:17:06.654Z,89.10
2018-04-08T11:19:34.826Z,89.20
2018-04-08T11:22:03.764Z,88.50
2018-04-08T11:24:32.356Z,87.40
2018-04-08T11:27:01.273Z,88.40
2018-04-08T11:29:29.446Z,88.20
2018-04-08T11:31:57.600Z,89.70
2018-04-08T11:34:25.767Z,87.20
2018-04-08T11:36:54.668Z,88.60
2018-04-08T11:39:22.837Z,88.60
2018-04-08T11:41:50.992Z,85.60
2018-04-08T11:44:20.166Z,87.10
2018-04-08T11:46:48.333Z,86.40
2018-04-08T11:49:16.508Z,87.40
2018-04-08T11:51:44.658Z,86.50
2018-04-08T11:54:12.830Z,86.80
2018-04-08T11:56:40.979Z,87.50
2018-04-08T11:59:09.137Z,82.80
2018-04-08T12:01:37.273Z,84.40
2018-04-08T12:04:05.445Z,85.50
2018-04-08T12:06:33.590Z,85.30
2018-04-08T12:09:01.994Z,80.60
2018-04-08T12:11:30.138Z,82.70
2018-04-08T12:13:58.314Z,83.60
2018-04-08T12:16:27.216Z,84.70
2018-04-08T12:18:56.278Z,75.50
2018-04-08T12:21:25.268Z,82.40
2018-04-08T12:23:53.469Z,81.70
2018-04-08T12:26:22.000Z,82.50
2018-04-08T12:28:50.161Z,82.50
2018-04-08T12:31:19.032Z,82.10
2018-04-08T12:33:47.209Z,81.30
2018-04-08T12:36:15.346Z,78.90
2018-04-08T12:38:43.473Z,76.00
2018-04-08T12:41:11.637Z,74.20
2018-04-08T12:43:40.421Z,76.10
2018-04-08T12:46:08.877Z,75.30
2018-04-08T12:48:37.012Z,75.20
2018-04-08T12:51:05.168Z,74.00
2018-04-08T12:53:34.142Z,77.00
2018-04-08T12:56:02.302Z,79.40
2018-04-08T12:58:30.429Z,80.30
2018-04-08T13:00:58.587Z,77.00
2018-04-08T13:03:26.717Z,77.60
2018-04-08T13:05:54.877Z,74.50
2018-04-08T13:08:24.237Z,71.70
2018-04-08T13:10:52.975Z,68.30
2018-04-08T13:13:22.353Z,68.60
2018-04-08T13:15:50.567Z,68.30
2018-04-08T13:18:18.701Z,68.60
2018-04-08T13:20:47.333Z,65.40
2018-04-08T13:23:15.469Z,62.30
2018-04-08T13:25:43.624Z,63.70
2018-04-08T13:28:13.501Z,66.90
2018-04-08T13:30:42.154Z,63.00
2018-04-08T13:33:11.014Z,63.10
2018-04-08T13:35:39.171Z,64.50
2018-04-08T13:38:08.161Z,64.10
2018-04-08T13:40:36.849Z,67.30
2018-04-08T13:43:08.378Z,59.60
2018-04-08T13:45:36.949Z,59.50
2018-04-08T13:48:06.069Z,62.40
2018-04-08T13:50:35.146Z,59.80
2018-04-08T13:53:03.280Z,59.70
2018-04-08T13:55:33.754Z,59.60
2018-04-08T13:58:03.047Z,59.20
2018-04-08T14:00:36.389Z,59.10
2018-04-08T14:03:04.542Z,59.70
2018-04-08T14:05:33.184Z,59.70
2018-04-08T14:08:01.349Z,58.00
2018-04-08T14:10:31.408Z,56.60
2018-04-08T14:12:59.556Z,55.80
2018-04-08T14:15:29.502Z,56.40
2018-04-08T14:17:57.664Z,56.30
2018-04-08T14:20:26.250Z,56.90
2018-04-08T14:22:55.177Z,56.30
2018-04-08T14:25:24.235Z,56.30
2018-04-08T14:27:53.599Z,55.80
2018-04-08T14:30:22.290Z,55.80
2018-04-08T14:32:50.465Z,55.90
2018-04-08T14:35:21.322Z,56.10
2018-04-08T14:37:50.249Z,55.80
2018-04-08T14:40:19.666Z,55.80
2018-04-08T14:42:48.734Z,55.60
2018-04-08T14:45:16.869Z,55.30
2018-04-08T14:47:45.037Z,55.20
2018-04-08T14:50:13.528Z,55.30
2018-04-08T14:52:41.691Z,54.90
2018-04-08T14:55:09.829Z,54.30
2018-04-08T14:57:37.998Z,53.80
2018-04-08T15:00:06.679Z,53.70
2018-04-08T15:02:34.842Z,54.20
2018-04-08T15:05:02.978Z,53.40
2018-04-08T15:07:31.230Z,53.00
2018-04-08T15:09:59.908Z,53.90
2018-04-08T15:12:29.578Z,53.80
2018-04-08T15:14:58.366Z,54.00
2018-04-08T15:17:26.536Z,54.70
2018-04-08T15:19:54.678Z,54.50
2018-04-08T15:22:22.833Z,55.00
2018-04-08T15:24:51.525Z,54.80
2018-04-08T15:27:19.955Z,55.70
2018-04-08T15:29:48.855Z,55.10
2018-04-08T15:32:17.582Z,55.10
2018-04-08T15:34:45.705Z,56.10
2018-04-08T15:37:13.860Z,56.40
2018-04-08T15:39:42.003Z,55.80
2018-04-08T15:42:10.163Z,55.70
2018-04-08T15:44:38.309Z,55.20
2018-04-08T15:47:06.465Z,55.50
2018-04-08T15:49:34.603Z,56.10
2018-04-08T15:52:03.529Z,57.50
2018-04-08T15:54:32.302Z,57.40
2018-04-08T15:57:00.466Z,57.30
2018-04-08T15:59:28.601Z,57.20
2018-04-08T16:01:57.618Z,56.50
2018-04-08T16:04:25.783Z,56.90
2018-04-08T16:06:53.941Z,56.70
2018-04-08T16:09:22.655Z,57.60
2018-04-08T16:11:50.904Z,57.70
2018-04-08T16:14:19.068Z,56.50
2018-04-08T16:16:47.226Z,57.30
2018-04-08T16:19:15.349Z,58.60
2018-04-08T16:21:47.757Z,57.40
2018-04-08T16:24:16.389Z,58.60
2018-04-08T16:26:46.609Z,58.90
2018-04-08T16:29:16.534Z,58.40
2018-04-08T16:31:46.983Z,59.40
2018-04-08T16:34:15.565Z,60.80
2018-04-08T16:36:44.645Z,61.10
2018-04-08T16:39:13.906Z,61.00
2018-04-08T16:41:44.101Z,62.00
2018-04-08T16:44:13.504Z,61.80
2018-04-08T16:46:42.801Z,62.60
2018-04-08T16:49:11.192Z,62.80
2018-04-08T16:51:39.363Z,62.50
2018-04-08T16:54:08.524Z,62.30
2018-04-08T16:56:37.530Z,63.90
2018-04-08T16:59:06.863Z,62.30
2018-04-08T17:01:35.552Z,62.80
2018-04-08T17:04:04.429Z,63.50
2018-04-08T17:06:32.643Z,63.90
2018-04-08T17:09:02.346Z,63.00
2018-04-08T17:11:32.075Z,63.90
2018-04-08T17:14:01.068Z,63.10
2018-04-08T17:16:29.918Z,62.60
2018-04-08T17:18:58.093Z,63.30
2018-04-08T17:21:27.044Z,65.10
2018-04-08T17:23:55.418Z,64.70
2018-04-08T17:26:25.247Z,64.40
2018-04-08T17:28:53.421Z,65.70
2018-04-08T17:31:21.621Z,65.30
2018-04-08T17:33:49.780Z,65.00
2018-04-08T17:36:18.538Z,65.90
2018-04-08T17:38:47.086Z,67.30
2018-04-08T17:41:18.026Z,66.70
2018-04-08T17:43:46.187Z,67.20
2018-04-08T17:46:14.967Z,67.80
2018-04-08T17:48:43.152Z,67.20
2018-04-08T17:51:11.377Z,68.60
2018-04-08T17:53:39.541Z,69.20
2018-04-08T17:56:07.711Z,69.70
2018-04-08T17:58:35.860Z,72.10
2018-04-08T18:01:04.040Z,72.20
2018-04-08T18:03:33.609Z,73.10
2018-04-08T18:06:01.808Z,73.10
2018-04-08T18:08:29.944Z,74.00
2018-04-08T18:10:58.113Z,74.70
2018-04-08T18:13:26.259Z,75.00
2018-04-08T18:15:55.561Z,75.70
2018-04-08T18:18:23.706Z,76.90
2018-04-08T18:20:52.715Z,78.00
2018-04-08T18:23:21.612Z,79.10
2018-04-08T18:25:50.375Z,79.10
2018-04-08T18:28:20.342Z,79.80
2018-04-08T18:30:49.326Z,79.50
2018-04-08T18:33:19.546Z,79.50
2018-04-08T18:35:47.714Z,80.60
2018-04-08T18:38:15.845Z,80.90
2018-04-08T18:40:44.554Z,81.70
2018-04-08T18:43:13.820Z,82.00
2018-04-08T18:45:43.643Z,81.80
2018-04-08T18:48:11.792Z,82.70
2018-04-08T18:50:39.999Z,84.00
2018-04-08T18:53:10.027Z,85.00
2018-04-08T18:55:38.189Z,85.00
2018-04-08T18:58:06.360Z,84.90
2018-04-08T19:00:36.323Z,86.90
2018-04-08T19:03:04.461Z,87.80
2018-04-08T19:05:33.406Z,90.50
2018-04-08T19:08:01.548Z,90.50
2018-04-08T19:10:31.064Z,91.20
2018-04-08T19:13:00.605Z,92.20
2018-04-08T19:15:31.454Z,93.10
2018-04-08T19:18:02.904Z,94.90
2018-04-08T19:20:32.842Z,94.90
2018-04-08T19:23:01.020Z,95.70
2018-04-08T19:25:29.165Z,96.20
2018-04-08T19:27:58.216Z,96.80
2018-04-08T19:30:26.359Z,97.00
2018-04-08T19:32:57.685Z,97.20
2018-04-08T19:35:25.819Z,97.40
2018-04-08T19:37:53.981Z,97.40
2018-04-08T19:40:22.595Z,97.90
2018-04-08T19:42:50.805Z,98.10
2018-04-08T19:45:19.583Z,98.20
2018-04-08T19:47:47.807Z,98.70
2018-04-08T19:50:16.470Z,98.90
2018-04-08T19:52:44.684Z,99.40
2018-04-08T19:55:12.814Z,99.60
2018-04-08T19:57:41.035Z,99.80
2018-04-08T20:00:09.177Z,99.90
2018-04-08T20:02:38.069Z,99.90
2018-04-08T20:05:06.205Z,99.90
2018-04-08T20:07:34.376Z,99.90
2018-04-08T20:10:03.499Z,99.90
2018-04-08T20:12:31.671Z,99.90
2018-04-08T20:14:59.841Z,99.90
2018-04-08T20:17:28.009Z,99.90
2018-04-08T20:19:56.145Z,99.90
2018-04-08T20:22:24.306Z,99.90
2018-04-08T20:24:52.441Z,99.90
2018-04-08T20:27:22.424Z,99.90
2018-04-08T20:29:52.200Z,99.90
2018-04-08T20:32:20.840Z,99.90
2018-04-08T20:34:48.978Z,99.90
2018-04-08T20:37:18.073Z,99.90
2018-04-08T20:39:47.741Z,99.90
2018-04-08T20:42:15.908Z,99.90
2018-04-08T20:44:44.041Z,99.90
2018-04-08T20:47:12.208Z,99.90
2018-04-08T20:49:41.109Z,99.90
2018-04-08T20:52:09.280Z,99.90
2018-04-08T20:54:37.417Z,99.90
2018-04-08T20:57:05.597Z,99.90
2018-04-08T20:59:33.774Z,99.90
2018-04-08T21:02:02.618Z,99.90
2018-04-08T21:04:30.781Z,99.90
2018-04-08T21:06:58.923Z,99.90
2018-04-08T21:09:27.850Z,99.90
2018-04-08T21:11:55.986Z,99.90
2018-04-08T21:14:24.925Z,99.90
2018-04-08T21:16:53.061Z,99.90
2018-04-08T21:19:21.478Z,99.90
2018-04-08T21:21:49.613Z,99.90
2018-04-08T21:24:17.778Z,99.90
2018-04-08T21:26:45.919Z,99.90
2018-04-08T21:29:14.106Z,99.90
2018-04-08T21:31:46.394Z,99.90
2018-04-08T21:34:15.354Z,99.90
2018-04-08T21:36:43.493Z,99.90
2018-04-08T21:39:11.653Z,99.90
2018-04-08T21:41:39.790Z,99.90
2018-04-08T21:44:07.955Z,99.90
2018-04-08T21:46:36.109Z,99.90
2018-04-08T21:49:04.272Z,99.90
2018-04-08T21:51:32.429Z,99.90
2018-04-08T21:54:00.593Z,99.90
2018-04-08T21:56:28.720Z,99.90
2018-04-08T21:58:56.872Z,99.90
2018-04-08T22:01:25.013Z,99.90
2018-04-08T22:03:53.147Z,99.90
2018-04-08T22:06:22.782Z,99.90
2018-04-08T22:08:50.931Z,99.90
2018-04-08T22:11:19.084Z,99.90
2018-04-08T22:13:47.218Z,99.90
2018-04-08T22:16:15.380Z,99.90
2018-04-08T22:18:43.514Z,99.90
2018-04-08T22:21:11.673Z,99.90
2018-04-08T22:23:39.822Z,99.90
2018-04-08T22:26:07.982Z,99.90
2018-04-08T22:28:36.115Z,99.90
2018-04-08T22:31:04.268Z,99.90
2018-04-08T22:33:32.397Z,99.90
2018-04-08T22:36:00.557Z,99.90
2018-04-08T22:38:28.693Z,99.90
2018-04-08T22:40:56.848Z,99.90
2018-04-08T22:43:24.978Z,99.90
2018-04-08T22:45:53.137Z,99.90
2018-04-08T22:48:21.268Z,99.90
2018-04-08T22:50:49.425Z,99.90
2018-04-08T22:53:17.562Z,99.90
2018-04-08T22:55:45.721Z,99.90
2018-04-08T22:58:13.855Z,99.90
2018-04-08T23:00:42.013Z,99.90
2018-04-08T23:03:10.149Z,99.90
2018-04-08T23:05:38.306Z,99.90
2018-04-08T23:08:06.447Z,99.90
2018-04-08T23:10:34.609Z,99.90
2018-04-08T23:13:02.742Z,99.90
2018-04-08T23:15:30.905Z,99.90
2018-04-08T23:17:59.041Z,99.90
2018-04-08T23:20:27.178Z,99.90
2018-04-08T23:22:55.337Z,99.90
2018-04-08T23:25:23.469Z,99.90
2018-04-08T23:27:52.389Z,99.90
2018-04-08T23:30:20.522Z,99.90
2018-04-08T23:32:49.273Z,99.90
2018-04-08T23:35:17.408Z,99.90
2018-04-08T23:37:45.569Z,99.90
2018-04-08T23:40:13.703Z,99.90
2018-04-08T23:42:41.861Z,99.90
2018-04-08T23:45:09.991Z,99.90
2018-04-08T23:47:38.144Z,99.90
2018-04-08T23:50:06.285Z,99.90
2018-04-08T23:52:34.447Z,99.90
2018-04-08T23:55:02.584Z,99.90
2018-04-08T23:57:30.737Z,99.90
2018-04-08T23:59:58.869Z,99.90
